createdAt,value
2023-05-19T00:01:43.871Z,101088.47
2023-05-19T00:04:30.741Z,101096.25
2023-05-19T00:07:36.699Z,101090.47
2023-05-19T00:10:25.290Z,101086.41
2023-05-19T00:16:23.241Z,101091.22
2023-05-19T00:19:10.772Z,101087.25
2023-05-19T00:21:56.691Z,101085.00
2023-05-19T00:24:42.853Z,101087.63
2023-05-19T00:27:36.819Z,101084.38
2023-05-19T00:30:29.617Z,101085.84
2023-05-19T00:33:22.287Z,101086.09
2023-05-19T00:36:15.754Z,101081.03
2023-05-19T00:39:08.486Z,101075.84
2023-05-19T00:42:02.668Z,101074.78
2023-05-19T00:44:56.777Z,101066.03
2023-05-19T00:51:04.472Z,101065.69
2023-05-19T00:57:14.735Z,101073.84
2023-05-19T01:03:23.936Z,101075.41
2023-05-19T01:06:19.088Z,101073.50
2023-05-19T01:09:17.359Z,101078.16
2023-05-19T01:12:10.525Z,101079.72
2023-05-19T01:15:05.291Z,101081.50
2023-05-19T01:18:03.418Z,101077.06
2023-05-19T01:24:18.179Z,101072.41
2023-05-19T01:30:31.971Z,101072.75
2023-05-19T01:33:25.410Z,101075.94
2023-05-19T01:36:27.198Z,101077.97
2023-05-19T01:39:20.823Z,101074.72
2023-05-19T01:42:14.319Z,101080.16
2023-05-19T01:45:10.273Z,101082.47
2023-05-19T01:48:06.371Z,101082.34
2023-05-19T01:51:00.539Z,101069.81
2023-05-19T01:53:54.106Z,101071.84
2023-05-19T01:56:53.869Z,101079.84
2023-05-19T02:03:18.093Z,101072.44
2023-05-19T02:09:26.621Z,101073.31
2023-05-19T02:12:26.788Z,101073.09
2023-05-19T02:15:17.424Z,101072.94
2023-05-19T02:18:12.760Z,101074.38
2023-05-19T02:21:05.862Z,101075.66
2023-05-19T02:23:58.677Z,101067.09
2023-05-19T02:26:52.271Z,101070.72
2023-05-19T02:29:44.364Z,101062.91
2023-05-19T02:32:37.742Z,101063.28
2023-05-19T02:35:31.759Z,101065.31
2023-05-19T02:38:24.599Z,101064.13
2023-05-19T02:41:18.451Z,101063.59
2023-05-19T02:44:11.572Z,101060.38
2023-05-19T02:50:16.897Z,101065.94
2023-05-19T02:53:10.989Z,101059.38
2023-05-19T02:56:40.761Z,101060.69
2023-05-19T02:59:33.628Z,101050.06
2023-05-19T03:03:03.822Z,101058.84
2023-05-19T03:05:56.576Z,101055.03
2023-05-19T03:08:50.847Z,101062.16
2023-05-19T03:12:20.770Z,101057.56
2023-05-19T03:15:14.954Z,101059.75
2023-05-19T03:21:19.850Z,101061.88
2023-05-19T03:24:13.948Z,101055.03
2023-05-19T03:27:06.202Z,101052.50
2023-05-19T03:29:59.387Z,101063.09
2023-05-19T03:32:53.170Z,101059.00
2023-05-19T03:35:45.320Z,101057.56
2023-05-19T03:38:38.401Z,101062.97
2023-05-19T03:41:32.723Z,101063.69
2023-05-19T03:44:26.871Z,101067.91
2023-05-19T03:47:19.753Z,101066.47
2023-05-19T03:53:49.239Z,101066.28
2023-05-19T03:56:43.787Z,101064.81
2023-05-19T03:59:37.144Z,101063.66
2023-05-19T04:02:30.467Z,101061.53
2023-05-19T04:05:36.710Z,101060.28
2023-05-19T04:08:30.478Z,101070.50
2023-05-19T04:14:28.720Z,101066.81
2023-05-19T04:17:23.529Z,101084.91
2023-05-19T04:20:16.462Z,101078.88
2023-05-19T04:23:09.492Z,101079.09
2023-05-19T04:26:03.535Z,101078.06
2023-05-19T04:28:57.752Z,101084.03
2023-05-19T04:32:18.198Z,101084.50
2023-05-19T04:35:13.575Z,101088.31
2023-05-19T04:38:06.677Z,101080.63
2023-05-19T04:44:18.008Z,101080.72
2023-05-19T04:47:13.250Z,101084.91
2023-05-19T04:50:04.106Z,101079.31
2023-05-19T04:52:56.468Z,101080.94
2023-05-19T04:55:51.503Z,101087.09
2023-05-19T04:58:44.681Z,101082.84
2023-05-19T05:01:40.182Z,101076.69
2023-05-19T05:04:34.502Z,101070.19
2023-05-19T05:07:31.595Z,101077.09
2023-05-19T05:10:25.359Z,101066.22
2023-05-19T05:13:19.822Z,101074.44
2023-05-19T05:19:19.834Z,101065.78
2023-05-19T05:22:14.162Z,101061.34
2023-05-19T05:25:09.215Z,101056.69
2023-05-19T05:28:39.873Z,101051.88
2023-05-19T05:31:32.524Z,101055.97
2023-05-19T05:34:25.963Z,101064.22
2023-05-19T05:40:28.176Z,101053.94
2023-05-19T05:43:21.242Z,101053.22
2023-05-19T05:46:23.446Z,101050.59
2023-05-19T05:49:16.879Z,101049.13
2023-05-19T05:52:12.318Z,101046.69
2023-05-19T05:55:12.180Z,101052.59
2023-05-19T05:58:10.964Z,101055.72
2023-05-19T06:01:04.640Z,101044.94
2023-05-19T06:03:57.319Z,101055.44
2023-05-19T06:06:52.563Z,101047.41
2023-05-19T06:09:48.241Z,101048.25
2023-05-19T06:12:43.108Z,101044.38
2023-05-19T06:18:50.894Z,101041.81
2023-05-19T06:21:45.169Z,101039.31
2023-05-19T06:24:39.607Z,101045.28
2023-05-19T06:27:34.890Z,101037.66
2023-05-19T06:30:28.271Z,101040.22
2023-05-19T06:33:40.757Z,101051.75
2023-05-19T06:36:35.156Z,101043.22
2023-05-19T06:39:28.755Z,101042.31
2023-05-19T06:42:22.414Z,101033.84
2023-05-19T06:45:22.451Z,101049.00
2023-05-19T06:48:42.996Z,101033.59
2023-05-19T06:51:35.815Z,101038.75
2023-05-19T06:54:56.871Z,101026.69
2023-05-19T06:57:49.450Z,101031.78
2023-05-19T07:00:58.783Z,101025.88
2023-05-19T07:03:58.116Z,101023.47
2023-05-19T07:10:12.316Z,101023.91
2023-05-19T07:16:51.564Z,101018.06
2023-05-19T07:19:46.032Z,101010.00
2023-05-19T07:22:39.630Z,101007.81
2023-05-19T07:25:33.139Z,101016.66
2023-05-19T07:28:25.778Z,101019.09
2023-05-19T07:31:18.574Z,101010.47
2023-05-19T07:34:11.607Z,101017.09
2023-05-19T07:37:05.691Z,101006.31
2023-05-19T07:39:52.021Z,101006.38
2023-05-19T07:42:44.628Z,101004.72
2023-05-19T07:45:37.727Z,101010.00
2023-05-19T07:48:30.818Z,101009.84
2023-05-19T07:51:23.747Z,101002.63
2023-05-19T07:54:22.253Z,101000.31
2023-05-19T07:57:15.069Z,100997.69
2023-05-19T08:00:11.502Z,101004.22
2023-05-19T08:03:07.811Z,100999.78
2023-05-19T08:06:00.761Z,101002.66
2023-05-19T08:08:54.164Z,101008.13
2023-05-19T08:11:47.798Z,101005.56
2023-05-19T08:18:01.651Z,101001.56
2023-05-19T08:24:42.468Z,100991.31
2023-05-19T08:27:36.634Z,100991.56
2023-05-19T08:33:58.587Z,100986.44
2023-05-19T08:36:51.739Z,100982.06
2023-05-19T08:39:44.635Z,100972.84
2023-05-19T08:42:33.842Z,100976.88
2023-05-19T08:45:28.039Z,100968.81
2023-05-19T08:48:20.862Z,100963.09
2023-05-19T08:51:19.317Z,100959.84
2023-05-19T08:54:15.602Z,100961.63
2023-05-19T08:57:09.905Z,100965.69
2023-05-19T09:00:08.046Z,100961.50
2023-05-19T09:09:10.988Z,100942.03
2023-05-19T09:12:03.982Z,100936.78
2023-05-19T09:15:02.298Z,100936.25
2023-05-19T09:18:07.954Z,100926.88
2023-05-19T09:21:02.616Z,100930.09
2023-05-19T09:23:55.814Z,100928.03
2023-05-19T09:26:48.683Z,100918.03
2023-05-19T09:29:41.403Z,100918.16
2023-05-19T09:32:36.169Z,100912.53
2023-05-19T09:35:30.561Z,100917.44
2023-05-19T09:38:25.130Z,100920.00
2023-05-19T09:41:18.344Z,100907.84
2023-05-19T09:44:13.962Z,100904.06
2023-05-19T09:47:07.042Z,100909.47
2023-05-19T09:49:59.705Z,100914.19
2023-05-19T09:52:54.051Z,100913.94
2023-05-19T09:55:46.571Z,100907.53
2023-05-19T09:58:42.728Z,100901.06
2023-05-19T10:01:36.311Z,100904.19
2023-05-19T10:04:32.840Z,100894.19
2023-05-19T10:07:25.599Z,100896.38
2023-05-19T10:10:20.926Z,100896.50
2023-05-19T10:13:13.926Z,100902.53
2023-05-19T10:16:06.969Z,100897.84
2023-05-19T10:19:00.775Z,100894.53
2023-05-19T10:21:54.305Z,100892.88
2023-05-19T10:24:47.015Z,100896.13
2023-05-19T10:30:38.999Z,100880.56
2023-05-19T10:33:32.945Z,100885.59
2023-05-19T10:36:33.496Z,100885.41
2023-05-19T10:42:39.160Z,100872.31
2023-05-19T10:48:47.050Z,100881.63
2023-05-19T10:51:34.020Z,100873.56
2023-05-19T10:54:40.689Z,100878.97
2023-05-19T10:57:28.436Z,100876.78
2023-05-19T11:00:28.470Z,100874.81
2023-05-19T11:03:16.121Z,100865.69
2023-05-19T11:06:19.364Z,100870.00
2023-05-19T11:09:13.946Z,100876.03
2023-05-19T11:12:07.394Z,100864.88
2023-05-19T11:18:28.297Z,100856.50
2023-05-19T11:21:22.342Z,100859.81
2023-05-19T11:24:34.206Z,100866.44
2023-05-19T11:27:28.721Z,100855.94
2023-05-19T11:30:21.681Z,100849.81
2023-05-19T11:33:14.901Z,100851.91
2023-05-19T11:36:07.795Z,100864.25
2023-05-19T11:39:02.559Z,100857.81
2023-05-19T11:42:20.953Z,100847.03
2023-05-19T11:45:13.750Z,100839.50
2023-05-19T11:48:43.919Z,100856.06
2023-05-19T11:51:39.510Z,100852.72
2023-05-19T11:54:36.600Z,100848.66
2023-05-19T11:57:29.835Z,100849.31
2023-05-19T12:00:23.523Z,100849.44
2023-05-19T12:03:17.259Z,100848.22
2023-05-19T12:06:11.157Z,100849.31
2023-05-19T12:09:05.429Z,100845.00
2023-05-19T12:11:59.018Z,100844.97
2023-05-19T12:14:52.675Z,100846.03
2023-05-19T12:17:51.199Z,100834.44
2023-05-19T12:20:43.326Z,100846.63
2023-05-19T12:23:35.690Z,100836.13
2023-05-19T12:26:28.990Z,100839.88
2023-05-19T12:29:22.953Z,100835.41
2023-05-19T12:32:16.335Z,100831.44
2023-05-19T12:38:21.473Z,100821.66
2023-05-19T12:44:24.863Z,100821.91
2023-05-19T12:47:19.664Z,100831.94
2023-05-19T12:50:12.625Z,100818.91
2023-05-19T12:53:09.918Z,100827.16
2023-05-19T12:56:27.932Z,100819.47
2023-05-19T12:59:37.279Z,100823.84
2023-05-19T13:02:30.819Z,100820.31
2023-05-19T13:05:24.563Z,100818.06
2023-05-19T13:08:19.014Z,100803.59
2023-05-19T13:11:11.690Z,100805.50
2023-05-19T13:14:04.404Z,100810.38
2023-05-19T13:20:11.940Z,100799.97
2023-05-19T13:23:05.673Z,100800.63
2023-05-19T13:25:59.281Z,100801.69
2023-05-19T13:32:12.404Z,100806.38
2023-05-19T13:38:31.138Z,100801.88
2023-05-19T13:41:24.748Z,100799.84
2023-05-19T13:44:17.630Z,100797.50
2023-05-19T13:47:10.783Z,100792.97
2023-05-19T13:50:04.298Z,100791.84
2023-05-19T13:52:56.966Z,100792.94
2023-05-19T13:55:52.864Z,100780.66
2023-05-19T13:58:45.707Z,100795.69
2023-05-19T14:01:38.439Z,100780.09
2023-05-19T14:04:31.965Z,100785.50
2023-05-19T14:07:25.347Z,100782.81
2023-05-19T14:13:31.560Z,100779.72
2023-05-19T14:16:26.299Z,100780.06
2023-05-19T14:19:18.854Z,100772.41
2023-05-19T14:22:13.230Z,100775.63
2023-05-19T14:25:06.310Z,100776.59
2023-05-19T14:27:58.888Z,100777.47
2023-05-19T14:30:54.279Z,100770.72
2023-05-19T14:33:46.545Z,100779.88
2023-05-19T14:36:39.292Z,100780.97
2023-05-19T14:39:31.934Z,100772.34
2023-05-19T14:42:24.443Z,100774.13
2023-05-19T14:45:16.488Z,100773.47
2023-05-19T14:51:23.271Z,100774.53
2023-05-19T14:54:15.933Z,100761.66
2023-05-19T14:57:08.690Z,100774.25
2023-05-19T15:00:01.786Z,100774.28
2023-05-19T15:02:54.329Z,100782.78
2023-05-19T15:05:46.887Z,100779.00
2023-05-19T15:08:41.430Z,100775.31
2023-05-19T15:11:33.502Z,100774.03
2023-05-19T15:15:03.895Z,100764.31
2023-05-19T15:17:56.516Z,100774.13
2023-05-19T15:24:20.103Z,100775.88
2023-05-19T15:27:12.811Z,100769.41
2023-05-19T15:30:06.412Z,100769.78
2023-05-19T15:32:58.701Z,100770.03
2023-05-19T15:35:55.319Z,100762.22
2023-05-19T15:38:47.835Z,100759.72
2023-05-19T15:41:42.192Z,100760.91
2023-05-19T15:44:36.354Z,100752.78
2023-05-19T15:47:28.516Z,100757.03
2023-05-19T15:50:21.772Z,100769.91
2023-05-19T15:53:51.900Z,100753.16
2023-05-19T15:56:45.980Z,100757.59
2023-05-19T15:59:38.860Z,100751.94
2023-05-19T16:02:31.714Z,100745.91
2023-05-19T16:05:24.925Z,100735.44
2023-05-19T16:11:29.994Z,100738.22
2023-05-19T16:14:24.505Z,100736.94
2023-05-19T16:20:29.721Z,100741.28
2023-05-19T16:23:24.508Z,100745.25
2023-05-19T16:29:45.658Z,100741.81
2023-05-19T16:32:38.851Z,100732.19
2023-05-19T16:35:32.074Z,100734.38
2023-05-19T16:38:24.616Z,100734.41
2023-05-19T16:41:17.556Z,100731.44
2023-05-19T16:47:48.161Z,100734.91
2023-05-19T16:51:17.901Z,100733.97
2023-05-19T16:54:10.817Z,100739.78
2023-05-19T16:57:04.559Z,100737.63
2023-05-19T17:03:07.375Z,100733.75
2023-05-19T17:06:00.778Z,100734.97
2023-05-19T17:09:02.925Z,100727.34
2023-05-19T17:11:56.416Z,100728.97
2023-05-19T17:14:50.262Z,100733.94
2023-05-19T17:17:42.836Z,100729.44
2023-05-19T17:20:36.789Z,100734.31
2023-05-19T17:23:29.455Z,100732.03
2023-05-19T17:29:34.416Z,100736.09
2023-05-19T17:35:32.035Z,100741.41
2023-05-19T17:38:26.092Z,100739.97
2023-05-19T17:41:18.646Z,100741.66
2023-05-19T17:44:36.707Z,100749.75
2023-05-19T17:47:29.829Z,100741.28
2023-05-19T17:50:37.989Z,100743.13
2023-05-19T17:53:32.519Z,100743.75
2023-05-19T17:56:26.497Z,100729.25
2023-05-19T17:59:19.166Z,100733.78
2023-05-19T18:02:12.875Z,100730.72
2023-05-19T18:05:07.072Z,100741.50
2023-05-19T18:08:03.404Z,100730.06
2023-05-19T18:10:58.256Z,100731.94
2023-05-19T18:13:50.564Z,100728.16
2023-05-19T18:16:44.056Z,100729.84
2023-05-19T18:20:08.550Z,100738.16
2023-05-19T18:23:02.572Z,100733.16
2023-05-19T18:29:11.125Z,100742.06
2023-05-19T18:35:17.129Z,100760.97
2023-05-19T18:38:09.641Z,100752.41
2023-05-19T18:41:09.300Z,100750.34
2023-05-19T18:44:01.531Z,100753.03
2023-05-19T18:46:54.998Z,100751.81
2023-05-19T18:49:47.956Z,100755.34
2023-05-19T18:52:40.816Z,100749.88
2023-05-19T18:55:33.574Z,100756.06
2023-05-19T19:01:35.101Z,100760.69
2023-05-19T19:04:29.338Z,100769.56
2023-05-19T19:10:38.928Z,100774.38
2023-05-19T19:13:31.604Z,100772.66
2023-05-19T19:16:24.795Z,100771.22
2023-05-19T19:19:54.997Z,100773.09
2023-05-19T19:22:48.947Z,100775.78
2023-05-19T19:26:18.930Z,100787.44
2023-05-19T19:29:11.896Z,100794.84
2023-05-19T19:32:05.371Z,100794.72
2023-05-19T19:34:57.878Z,100789.75
2023-05-19T19:37:52.532Z,100803.31
2023-05-19T19:40:44.421Z,100797.69
2023-05-19T19:43:36.554Z,100805.13
2023-05-19T19:46:29.766Z,100801.63
2023-05-19T19:49:23.016Z,100805.16
2023-05-19T19:55:23.939Z,100809.88
2023-05-19T19:58:16.878Z,100809.34
2023-05-19T20:01:09.918Z,100808.41
2023-05-19T20:04:39.959Z,100801.38
2023-05-19T20:07:33.041Z,100809.06
2023-05-19T20:10:27.269Z,100815.53
2023-05-19T20:16:40.284Z,100814.06
2023-05-19T20:19:32.888Z,100823.44
2023-05-19T20:22:25.465Z,100823.25
2023-05-19T20:25:17.618Z,100827.13
2023-05-19T20:28:12.102Z,100824.63
2023-05-19T20:34:37.537Z,100825.28
2023-05-19T20:37:54.710Z,100829.47
2023-05-19T20:40:41.863Z,100829.66
2023-05-19T20:47:22.114Z,100829.28
2023-05-19T20:50:14.922Z,100821.91
2023-05-19T20:53:07.919Z,100825.75
2023-05-19T20:56:00.601Z,100822.19
2023-05-19T21:02:07.498Z,100827.97
2023-05-19T21:05:02.370Z,100821.47
2023-05-19T21:07:54.575Z,100829.72
2023-05-19T21:10:47.707Z,100833.59
2023-05-19T21:13:40.505Z,100828.44
2023-05-19T21:16:29.805Z,100832.88
2023-05-19T21:19:22.826Z,100835.00
2023-05-19T21:22:17.445Z,100845.75
2023-05-19T21:25:09.967Z,100843.56
2023-05-19T21:28:03.215Z,100836.78
2023-05-19T21:30:55.674Z,100840.78
2023-05-19T21:33:48.585Z,100838.63
2023-05-19T21:36:42.184Z,100845.78
2023-05-19T21:39:35.484Z,100843.66
2023-05-19T21:42:27.972Z,100843.72
2023-05-19T21:45:20.672Z,100844.88
2023-05-19T21:48:13.717Z,100840.09
2023-05-19T21:51:00.437Z,100839.78
2023-05-19T21:53:52.588Z,100842.88
2023-05-19T21:56:47.245Z,100853.50
2023-05-19T21:59:39.997Z,100850.63
2023-05-19T22:02:33.005Z,100860.03
2023-05-19T22:05:25.942Z,100847.91
2023-05-19T22:08:19.587Z,100851.63
2023-05-19T22:11:14.763Z,100841.75
2023-05-19T22:14:08.834Z,100839.88
2023-05-19T22:17:02.032Z,100841.84
2023-05-19T22:20:26.739Z,100836.22
2023-05-19T22:23:19.844Z,100840.72
2023-05-19T22:26:12.991Z,100843.19
2023-05-19T22:29:06.042Z,100844.06
2023-05-19T22:32:00.408Z,100848.81
2023-05-19T22:34:54.635Z,100840.78
2023-05-19T22:37:47.876Z,100847.16
2023-05-19T22:40:40.759Z,100856.59
2023-05-19T22:43:33.544Z,100843.28
2023-05-19T22:46:26.860Z,100851.16
2023-05-19T22:49:24.328Z,100853.22
2023-05-19T22:52:17.207Z,100860.66
2023-05-19T22:55:10.483Z,100850.19
2023-05-19T22:58:03.064Z,100852.19
2023-05-19T23:04:09.201Z,100859.75
2023-05-19T23:10:15.511Z,100849.13
2023-05-19T23:16:20.086Z,100852.41
2023-05-19T23:19:12.546Z,100853.03
2023-05-19T23:22:06.213Z,100860.72
2023-05-19T23:24:58.690Z,100867.97
2023-05-19T23:27:53.381Z,100864.56
2023-05-19T23:30:45.859Z,100864.72
2023-05-19T23:33:38.444Z,100851.72
2023-05-19T23:36:24.418Z,100854.13
2023-05-19T23:39:10.501Z,100855.28
2023-05-19T23:41:57.042Z,100853.53
2023-05-19T23:44:44.537Z,100852.78
2023-05-19T23:47:30.768Z,100858.25
2023-05-19T23:50:16.881Z,100850.88
2023-05-19T23:53:03.136Z,100846.94
2023-05-19T23:55:49.230Z,100844.56
2023-05-19T23:58:38.660Z,100846.78
